TimeCST,TemperatureF,Dew PointF,Humidity,Sea Level PressureIn,VisibilityMPH,Wind Direction,Wind SpeedMPH,Gust SpeedMPH,PrecipitationIn,Events,Conditions,WindDirDegrees,DateUTC
12:54 AM,39.0,30.0,70,30.03,10.0,NNE,9.2,-,N/A,,Mostly Cloudy,30,2014-02-23 06:54:00
1:54 AM,39.0,30.9,73,30.04,10.0,NE,8.1,-,N/A,,Overcast,40,2014-02-23 07:54:00
2:54 AM,39.0,30.0,70,30.03,10.0,ENE,6.9,-,N/A,,Overcast,70,2014-02-23 08:54:00
3:54 AM,37.9,30.0,73,30.02,10.0,East,4.6,-,N/A,,Clear,80,2014-02-23 09:54:00
4:54 AM,33.1,28.9,85,30.03,10.0,NNE,5.8,-,N/A,,Clear,30,2014-02-23 10:54:00
5:54 AM,37.0,30.9,79,30.07,10.0,North,6.9,-,N/A,,Clear,360,2014-02-23 11:54:00
6:54 AM,36.0,30.0,79,30.10,10.0,North,12.7,-,N/A,,Clear,350,2014-02-23 12:54:00
7:52 AM,37.4,32.0,81,30.14,10.0,North,15.0,-,N/A,,Overcast,360,2014-02-23 13:52:00
7:54 AM,37.0,32.0,82,30.15,10.0,North,12.7,-,N/A,,Overcast,360,2014-02-23 13:54:00
8:54 AM,37.9,30.0,73,30.15,10.0,North,17.3,26.5,N/A,,Mostly Cloudy,10,2014-02-23 14:54:00
9:04 AM,39.0,30.0,70,30.14,10.0,NNE,16.1,24.2,N/A,,Scattered Clouds,20,2014-02-23 15:04:00
9:34 AM,39.0,28.9,67,30.14,10.0,North,18.4,25.3,N/A,,Mostly Cloudy,10,2014-02-23 15:34:00
9:54 AM,37.9,28.9,70,30.17,10.0,North,12.7,-,N/A,,Overcast,10,2014-02-23 15:54:00
10:22 AM,37.9,28.9,70,30.15,9.0,North,10.4,-,0.00,Snow,Light Snow,360,2014-02-23 16:22:00
10:36 AM,37.0,30.0,76,30.14,2.5,North,13.8,-,0.00,Snow,Light Snow,10,2014-02-23 16:36:00
10:44 AM,37.0,30.9,79,30.14,4.0,North,15.0,-,0.00,Snow,Light Snow,10,2014-02-23 16:44:00
10:54 AM,37.9,32.0,79,30.14,7.0,NNE,11.5,20.7,0.00,Snow,Light Snow,20,2014-02-23 16:54:00
11:03 AM,37.9,30.9,76,30.14,10.0,North,16.1,21.9,0.00,Rain,Light Rain,10,2014-02-23 17:03:00
11:54 AM,39.9,30.0,68,30.17,10.0,NNE,13.8,-,0.00,,Mostly Cloudy,20,2014-02-23 17:54:00
12:54 PM,39.9,26.1,58,30.17,10.0,North,12.7,-,N/A,,Overcast,360,2014-02-23 18:54:00
1:54 PM,39.0,24.1,55,30.17,10.0,NNE,13.8,-,N/A,,Mostly Cloudy,20,2014-02-23 19:54:00
2:54 PM,37.0,28.0,70,30.19,10.0,North,11.5,-,N/A,,Overcast,360,2014-02-23 20:54:00
3:54 PM,37.9,23.0,55,30.20,10.0,North,11.5,-,N/A,,Mostly Cloudy,10,2014-02-23 21:54:00
4:54 PM,36.0,18.0,48,30.22,10.0,North,9.2,-,N/A,,Clear,360,2014-02-23 22:54:00
5:54 PM,34.0,17.1,50,30.24,10.0,North,9.2,-,N/A,,Clear,350,2014-02-23 23:54:00
6:54 PM,32.0,17.1,54,30.25,10.0,North,6.9,-,N/A,,Clear,350,2014-02-24 00:54:00
7:54 PM,32.0,16.0,52,30.28,10.0,NNW,9.2,-,N/A,,Clear,340,2014-02-24 01:54:00
8:54 PM,30.0,16.0,56,30.29,10.0,NNW,8.1,-,N/A,,Clear,340,2014-02-24 02:54:00
9:54 PM,30.0,17.1,59,30.31,10.0,NNW,6.9,-,N/A,,Clear,340,2014-02-24 03:54:00
10:54 PM,28.0,16.0,61,30.31,10.0,North,6.9,-,N/A,,Clear,350,2014-02-24 04:54:00
11:54 PM,27.0,16.0,63,30.32,10.0,NNW,3.5,-,N/A,,Clear,330,2014-02-24 05:54:00